»·PEaware :: N128PC KLAX-KSAN

N128PC :: KLAX-KSAN

FLIGHT INFORMATION

Flight Status: Arrived
Operator: Privately registered:
United States
More flights under this callsign
Pilot: Yushen L. (19663)
Aircraft: PIPER PA-28 CHEROKEE ARCHER
(PA28)
More flights by this aircraft type
Origin: KLAX Los Angeles Intl
United States
Destination: KSAN San Diego Intl-Lindbergh
United States
More flights between these airports :: More routes between these airports
Route: VPLHP V363 MZB
File this flight plan on PilotEdge
Remarks: Cat 11 rating
Altitude:
(Current/Filed)
7,500ft
Speed:
(Current/Filed)
115kts
Departed: 03-Aug-18 02:19 PM
Arrived: 03-Aug-18 03:22 PM
Distance/Time
Traveled:
95nm/1:03
Distance/Time
To Go:
Arrived

Flight Plot

Page will automatically refresh every two minutes.

Flight plan parsing failed; only flown route is shown


Map Options




Map Legend


Flown Route
Filed Route
Departure Airport
Arrival Airport
Navaid (VOR, NDB)
Fix

Horizontal Profiles

Position Reports

Time Latitude Longitude Heading Altitude Ground
Speed
03-Aug-18 13:58 33.941532 -118.394099 269 129ft 0kts
03-Aug-18 13:59 33.941532 -118.394100 269 129ft 0kts
03-Aug-18 14:00 33.941532 -118.394102 269 129ft 0kts
03-Aug-18 14:01 33.941532 -118.394103 269 129ft 0kts
03-Aug-18 14:02 33.941532 -118.394105 269 129ft 0kts
03-Aug-18 14:03 33.941532 -118.394106 269 129ft 0kts
03-Aug-18 14:04 33.941532 -118.394108 269 129ft 0kts
03-Aug-18 14:05 33.941532 -118.394109 269 129ft 0kts
03-Aug-18 14:06 33.941532 -118.394111 269 129ft 0kts
03-Aug-18 14:07 33.941532 -118.394112 269 129ft 0kts
03-Aug-18 14:08 33.941532 -118.394114 269 129ft 0kts
03-Aug-18 14:09 33.941532 -118.394115 269 129ft 0kts
03-Aug-18 14:10 33.941532 -118.394117 269 129ft 0kts
03-Aug-18 14:11 33.941532 -118.394118 269 129ft 0kts
03-Aug-18 14:12 33.941532 -118.394120 269 129ft 0kts
03-Aug-18 14:13 33.941532 -118.394121 269 129ft 0kts
03-Aug-18 14:14 33.941532 -118.394127 269 129ft 0kts
03-Aug-18 14:15 33.940321 -118.393068 90 129ft 10kts
03-Aug-18 14:16 33.939975 -118.388687 81 129ft 21kts
03-Aug-18 14:17 33.940750 -118.380748 102 129ft 14kts
03-Aug-18 14:18 33.940672 -118.380560 128 129ft 0kts
03-Aug-18 14:19 33.940670 -118.380556 128 129ft 0kts
03-Aug-18 14:20 33.939486 -118.383652 263 147ft 64kts
03-Aug-18 14:21 33.938882 -118.404121 271 1375ft 60kts
03-Aug-18 14:22 33.939109 -118.426840 274 2438ft 71kts
03-Aug-18 14:23 33.933051 -118.443790 182 2969ft 101kts
03-Aug-18 14:24 33.903886 -118.442592 176 2956ft 108kts
03-Aug-18 14:25 33.877920 -118.427653 143 3195ft 103kts
03-Aug-18 14:26 33.856649 -118.404737 133 3548ft 107kts
03-Aug-18 14:27 33.838361 -118.374333 122 3536ft 114kts
03-Aug-18 14:28 33.821184 -118.342339 121 3442ft 122kts
03-Aug-18 14:29 33.805060 -118.308743 113 3473ft 114kts
03-Aug-18 14:30 33.793482 -118.273497 110 3467ft 118kts
03-Aug-18 14:31 33.781641 -118.237380 113 3469ft 114kts
03-Aug-18 14:32 33.768143 -118.203292 119 3666ft 110kts
03-Aug-18 14:33 33.754682 -118.172744 118 4599ft 95kts
03-Aug-18 14:34 33.740703 -118.143571 117 5300ft 105kts
03-Aug-18 14:35 33.724572 -118.112795 125 5509ft 112kts
03-Aug-18 14:36 33.706225 -118.081605 122 5535ft 113kts
03-Aug-18 14:37 33.687028 -118.050855 128 5549ft 112kts
03-Aug-18 14:38 33.670660 -118.027672 131 5530ft 117kts
03-Aug-18 14:39 33.649256 -117.999103 132 5563ft 114kts
03-Aug-18 14:40 33.629100 -117.969136 124 5538ft 116kts
03-Aug-18 14:41 33.612645 -117.935694 118 5476ft 116kts
03-Aug-18 14:42 33.596730 -117.902494 119 5677ft 109kts
03-Aug-18 14:43 33.582408 -117.875329 119 6538ft 94kts
03-Aug-18 14:44 33.569800 -117.847238 117 7165ft 98kts
03-Aug-18 14:45 33.553676 -117.819331 132 7503ft 110kts
03-Aug-18 14:46 33.530252 -117.792172 136 7571ft 122kts
03-Aug-18 14:47 33.508572 -117.760168 119 7467ft 127kts
03-Aug-18 14:48 33.491042 -117.724286 120 7487ft 123kts
03-Aug-18 14:49 33.466942 -117.699547 179 7470ft 124kts
03-Aug-18 14:50 33.433696 -117.690650 171 7499ft 122kts
03-Aug-18 14:51 33.433037 -117.690524 171 7498ft 122kts
03-Aug-18 14:52 33.394302 -117.684053 173 7496ft 122kts
03-Aug-18 14:53 33.367615 -117.678071 169 7550ft 120kts
03-Aug-18 14:54 33.341338 -117.666535 142 7470ft 124kts
03-Aug-18 14:55 33.307091 -117.640701 147 7470ft 115kts
03-Aug-18 14:56 33.283773 -117.623092 143 7490ft 122kts
03-Aug-18 14:57 33.256736 -117.598676 146 7470ft 125kts
03-Aug-18 14:58 33.230827 -117.572874 120 7531ft 120kts
03-Aug-18 14:59 33.216255 -117.535753 117 7450ft 122kts
03-Aug-18 15:00 33.200213 -117.500154 117 7464ft 119kts
03-Aug-18 15:01 33.185783 -117.465091 109 7228ft 114kts
03-Aug-18 15:02 33.176686 -117.428965 104 6511ft 113kts
03-Aug-18 15:03 33.167291 -117.393918 109 5894ft 110kts
03-Aug-18 15:04 33.150086 -117.364125 142 5270ft 109kts
03-Aug-18 15:05 33.120659 -117.355164 175 4635ft 109kts
03-Aug-18 15:06 33.090579 -117.349071 162 3962ft 112kts
03-Aug-18 15:07 33.062970 -117.332815 147 3510ft 110kts
03-Aug-18 15:08 33.043072 -117.324012 171 3469ft 107kts
03-Aug-18 15:09 33.013511 -117.318989 167 3401ft 110kts
03-Aug-18 15:10 32.985609 -117.310657 167 3429ft 107kts
03-Aug-18 15:11 32.956731 -117.302946 177 3372ft 111kts
03-Aug-18 15:12 32.930321 -117.289998 133 3468ft 100kts
03-Aug-18 15:13 32.906258 -117.272959 166 3477ft 107kts
03-Aug-18 15:14 32.878266 -117.262330 161 3519ft 100kts
03-Aug-18 15:15 32.850908 -117.251849 163 3481ft 106kts
03-Aug-18 15:16 32.822360 -117.240695 159 3379ft 105kts
03-Aug-18 15:17 32.795478 -117.228376 161 2525ft 101kts
03-Aug-18 15:18 32.770173 -117.215873 163 1628ft 99kts
03-Aug-18 15:19 32.747320 -117.200347 127 1141ft 88kts
03-Aug-18 15:20 32.739121 -117.176805 104 970ft 81kts
03-Aug-18 15:21 32.727847 -117.162675 240 490ft 59kts
03-Aug-18 15:22 32.731927 -117.182902 285 24ft 52kts
03-Aug-18 15:23 32.734126 -117.187999 349 18ft 0kts
03-Aug-18 15:24 32.734127 -117.187999 349 18ft 0kts
03-Aug-18 15:25 32.734128 -117.187999 349 18ft 0kts
03-Aug-18 15:26 32.734585 -117.189202 274 18ft 6kts
03-Aug-18 15:27 32.736031 -117.189462 152 18ft 0kts

Navigation Log

Ident Type
Flight plan parsing failed, navigation log unavailable